Time;durP1;ratioP1;P1;durP2;ratioP2;P2;SDS_P1;SDS_P2;PMS_P1;PMS_P2;Temp;Humidity;BMP_temperature;BMP_pressure;BME280_temperature;BME280_humidity;BME280_pressure;Samples;Min_cycle;Max_cycle;Signal;HPM_P1;HPM_P2
2022/11/11 00:00:17;;;;;;;13.38;7.70;;;;;;;9.12;100.00;102683.47;5010517;28;20021;-72
2022/11/11 00:02:43;;;;;;;12.23;7.45;;;;;;;9.11;100.00;102676.41;5010580;28;20072;-72
2022/11/11 00:05:08;;;;;;;12.20;7.55;;;;;;;9.15;100.00;102675.03;5014706;28;20424;-72
2022/11/11 00:07:33;;;;;;;13.60;8.40;;;;;;;9.10;100.00;102685.50;5015301;28;20026;-72
2022/11/11 00:09:59;;;;;;;13.43;8.75;;;;;;;9.13;100.00;102687.88;5017852;28;20018;-72
2022/11/11 00:12:24;;;;;;;13.40;9.23;;;;;;;9.15;100.00;102684.00;5018889;28;20021;-72
2022/11/11 00:14:49;;;;;;;16.35;9.95;;;;;;;9.16;100.00;102687.53;5015133;28;20048;-72
2022/11/11 00:25:26;;;;;;;13.05;9.85;;;;;;;9.20;100.00;102672.69;5019578;28;20100;-72
2022/11/11 00:27:51;;;;;;;12.90;9.73;;;;;;;9.21;100.00;102677.91;5013994;28;20025;-72
2022/11/11 00:30:17;;;;;;;14.00;10.27;;;;;;;9.15;100.00;102684.00;5015163;28;20018;-72
2022/11/11 00:32:42;;;;;;;14.85;10.30;;;;;;;9.18;100.00;102686.34;5015060;28;20046;-72
2022/11/11 00:37:53;;;;;;;16.48;10.68;;;;;;;9.21;100.00;102693.28;5034863;28;20040;-72
2022/11/11 00:40:18;;;;;;;16.98;10.90;;;;;;;9.25;100.00;102697.31;5033366;28;20030;-72
2022/11/11 00:42:43;;;;;;;16.15;10.70;;;;;;;9.25;100.00;102688.38;5034805;28;20018;-72
2022/11/11 00:45:10;;;;;;;16.20;11.23;;;;;;;9.23;100.00;102681.28;5034314;28;20501;-72
2022/11/11 00:53:10;;;;;;;16.38;11.40;;;;;;;9.25;100.00;102697.31;5034570;28;20182;-72
2022/11/11 00:55:35;;;;;;;19.23;12.02;;;;;;;9.26;100.00;102701.72;5034686;28;20088;-72
2022/11/11 00:58:00;;;;;;;17.25;11.55;;;;;;;9.27;100.00;102698.00;5034532;28;20201;-72
2022/11/11 01:00:26;;;;;;;16.92;11.57;;;;;;;9.29;100.00;102706.78;5032478;28;20219;-72
2022/11/11 01:02:51;;;;;;;17.27;10.93;;;;;;;9.33;100.00;102699.16;5031506;28;20029;-72
2022/11/11 01:05:16;;;;;;;15.55;11.63;;;;;;;9.31;100.00;102704.72;5033258;28;20112;-72
2022/11/11 01:07:42;;;;;;;16.95;11.00;;;;;;;9.33;100.00;102716.22;5034510;28;20027;-72
2022/11/11 01:10:07;;;;;;;17.35;11.18;;;;;;;9.34;100.00;102712.50;5033895;28;20021;-72
2022/11/11 01:12:33;;;;;;;15.98;11.40;;;;;;;9.32;100.00;102719.94;5032895;28;20052;-72
2022/11/11 01:14:58;;;;;;;16.45;12.13;;;;;;;9.37;100.00;102728.34;5033506;28;20025;-72
2022/11/11 01:17:23;;;;;;;15.25;11.50;;;;;;;9.40;100.00;102724.47;5032733;28;20021;-72
2022/11/11 01:19:48;;;;;;;14.55;10.95;;;;;;;9.42;100.00;102721.59;5034445;28;20025;-72
2022/11/11 01:22:14;;;;;;;16.75;11.77;;;;;;;9.42;100.00;102721.59;5033734;28;20025;-72
2022/11/11 01:24:39;;;;;;;20.42;11.85;;;;;;;9.44;100.00;102717.72;5034047;28;20536;-72
2022/11/11 01:27:04;;;;;;;19.52;11.93;;;;;;;9.44;100.00;102715.03;5033607;28;20025;-72
2022/11/11 01:29:30;;;;;;;19.27;12.57;;;;;;;9.43;100.00;102715.19;5032791;28;20022;-72
2022/11/11 01:31:55;;;;;;;17.33;11.85;;;;;;;9.42;100.00;102713.50;5032539;28;20041;-72
2022/11/11 01:34:20;;;;;;;17.02;12.10;;;;;;;9.45;100.00;102707.75;5033734;28;20423;-72
2022/11/11 01:36:46;;;;;;;19.00;12.38;;;;;;;9.39;100.00;102720.09;5033182;28;20033;-72
2022/11/11 01:39:11;;;;;;;17.35;12.18;;;;;;;9.37;100.00;102722.94;5033516;28;20033;-72
2022/11/11 01:41:37;;;;;;;16.50;11.75;;;;;;;9.39;100.00;102709.28;5033672;28;20056;-72
2022/11/11 01:44:18;;;;;;;17.48;11.98;;;;;;;9.47;100.00;102711.97;5033322;28;20040;-72
2022/11/11 01:47:00;;;;;;;;;;;;;;;9.50;100.00;102708.09;5034284;28;20033;-72
2022/11/11 01:49:35;;;;;;;19.15;12.07;;;;;;;9.42;100.00;102698.16;5032429;28;19916;-72
2022/11/11 01:52:14;;;;;;;15.18;11.68;;;;;;;9.40;100.00;102694.75;5033409;28;20018;-72
2022/11/11 01:55:02;;;;;;;17.83;12.00;;;;;;;9.39;100.00;102701.16;5033541;28;20029;-72
2022/11/11 01:57:35;;;;;;;16.95;12.05;;;;;;;9.38;100.00;102689.53;5030100;28;20200;-72
2022/11/11 02:00:06;;;;;;;17.52;12.52;;;;;;;9.35;100.00;102697.97;5031640;28;20512;-72
2022/11/11 02:02:37;;;;;;;17.63;11.77;;;;;;;9.36;100.00;102704.22;5023594;28;20439;-72
2022/11/11 02:07:48;;;;;;;21.17;13.90;;;;;;;9.37;100.00;102700.50;5013362;28;20076;-72
2022/11/11 02:10:20;;;;;;;18.10;12.43;;;;;;;9.33;100.00;102693.75;5011807;28;20428;-72
2022/11/11 02:15:30;;;;;;;18.83;12.98;;;;;;;9.32;100.00;102692.91;5013498;28;20107;-72
2022/11/11 02:17:55;;;;;;;22.42;13.27;;;;;;;9.35;100.00;102691.75;5014774;28;20060;-72
2022/11/11 02:20:24;;;;;;;19.10;12.63;;;;;;;9.29;100.00;102687.84;5032730;28;20025;-72
2022/11/11 02:23:09;;;;;;;22.45;13.93;;;;;;;9.32;100.00;102682.09;5031763;28;20075;-72
2022/11/11 02:25:38;;;;;;;19.83;13.20;;;;;;;9.28;100.00;102680.75;5033098;28;20027;-72
2022/11/11 02:28:05;;;;;;;21.00;12.82;;;;;;;9.25;100.00;102675.69;5030976;28;20461;-72
2022/11/11 02:30:31;;;;;;;23.80;12.77;;;;;;;9.25;100.00;102670.28;5031641;28;20420;-72
2022/11/11 02:32:56;;;;;;;19.73;12.73;;;;;;;9.25;100.00;102667.59;5031126;28;20065;-72
2022/11/11 02:35:30;;;;;;;20.83;13.25;;;;;;;9.27;100.00;102673.69;5031712;28;20029;-72
2022/11/11 02:37:55;;;;;;;17.88;12.75;;;;;;;9.22;100.00;102660.69;5025831;28;20104;-72
2022/11/11 02:40:27;;;;;;;20.58;12.70;;;;;;;9.21;100.00;102672.50;5012489;28;20393;-72
2022/11/11 02:42:53;;;;;;;18.15;12.25;;;;;;;9.22;100.00;102673.34;5012817;28;20022;-72
2022/11/11 02:45:18;;;;;;;19.35;12.40;;;;;;;9.25;100.00;102680.28;5011205;28;20163;-72
2022/11/11 02:47:43;;;;;;;19.08;12.07;;;;;;;9.21;100.00;102675.22;5012944;28;20099;-73
2022/11/11 02:50:09;;;;;;;18.13;11.68;;;;;;;9.23;100.00;102677.75;5013522;28;20026;-72
2022/11/11 02:52:34;;;;;;;18.92;11.57;;;;;;;9.23;100.00;102677.75;5012927;28;20036;-72
2022/11/11 02:55:00;;;;;;;19.45;11.85;;;;;;;9.16;100.00;102671.31;5012717;28;20408;-72
2022/11/11 02:57:26;;;;;;;20.05;11.75;;;;;;;9.14;100.00;102665.25;5011749;28;20034;-72
2022/11/11 02:59:51;;;;;;;15.90;11.20;;;;;;;9.18;100.00;102666.63;5016099;28;20072;-72
2022/11/11 03:02:16;;;;;;;16.63;11.63;;;;;;;9.16;100.00;102652.41;5029552;28;20025;-72
2022/11/11 03:04:42;;;;;;;18.45;11.50;;;;;;;9.18;100.00;102645.00;5031055;28;20024;-72
2022/11/11 03:07:07;;;;;;;16.40;11.73;;;;;;;9.15;100.00;102654.28;5031006;28;20087;-72
2022/11/11 03:09:32;;;;;;;17.30;10.85;;;;;;;9.13;100.00;102650.06;5032550;28;20029;-72
2022/11/11 03:11:58;;;;;;;18.30;11.95;;;;;;;9.12;100.00;102656.47;5030902;28;20029;-72
2022/11/11 03:14:23;;;;;;;19.02;11.25;;;;;;;9.08;100.00;102647.88;5030701;28;20060;-72
2022/11/11 03:19:33;;;;;;;15.15;10.75;;;;;;;9.10;100.00;102651.25;5032372;28;20096;-72
2022/11/11 03:22:00;;;;;;;16.90;10.82;;;;;;;9.08;100.00;102657.84;5030323;28;20029;-72
2022/11/11 03:25:36;;;;;;;16.83;10.88;;;;;;;9.08;100.00;102668.66;5030871;28;20025;-72
2022/11/11 03:27:12;;;;;;;17.23;10.63;;;;;;;9.06;100.00;102666.13;5031762;28;20376;-72
2022/11/11 03:29:37;;;;;;;14.55;10.07;;;;;;;9.05;100.00;102676.06;5032424;28;20010;-72
2022/11/11 03:32:03;;;;;;;16.27;10.77;;;;;;;9.06;100.00;102682.31;5031707;28;20076;-72
2022/11/11 03:34:28;;;;;;;18.02;11.00;;;;;;;9.04;100.00;102679.78;5032003;28;20119;-72
2022/11/11 03:39:37;;;;;;;16.52;10.63;;;;;;;9.02;100.00;102676.41;5034010;28;20124;-72
2022/11/11 03:42:03;;;;;;;17.88;11.27;;;;;;;9.01;100.00;102672.03;5051161;28;20112;-71
2022/11/11 03:44:28;;;;;;;19.88;11.05;;;;;;;9.01;100.00;102669.34;5036097;28;20029;-72
2022/11/11 03:46:54;;;;;;;17.02;11.00;;;;;;;9.02;100.00;102665.59;5034973;28;20061;-72
2022/11/11 03:49:19;;;;;;;17.67;10.98;;;;;;;9.02;100.00;102664.75;5036081;28;20037;-72
2022/11/11 03:51:45;;;;;;;15.60;10.55;;;;;;;9.01;100.00;102663.94;5034772;28;20041;-72
2022/11/11 03:54:11;;;;;;;17.33;11.13;;;;;;;8.99;100.00;102657.84;5034402;28;20063;-71
2022/11/11 03:56:36;;;;;;;16.05;10.75;;;;;;;8.97;100.00;102662.56;5028652;28;20083;-71
2022/11/11 03:59:01;;;;;;;17.75;10.88;;;;;;;8.98;100.00;102666.97;5015886;28;20021;-71
2022/11/11 04:12:23;;;;;;;16.70;10.73;;;;;;;8.94;100.00;102671.00;5015363;28;20044;-71
2022/11/11 04:17:32;;;;;;;17.45;10.77;;;;;;;8.95;100.00;102674.53;5015673;28;20037;-71
2022/11/11 04:22:41;;;;;;;20.88;10.95;;;;;;;8.93;100.00;102684.69;5015366;28;20044;-70
2022/11/11 04:29:27;;;;;;;19.25;11.07;;;;;;;8.91;100.00;102689.38;5015543;28;20028;-71
2022/11/11 04:30:36;;;;;;;17.48;10.68;;;;;;;8.87;100.00;102684.31;5015088;28;20033;-71
2022/11/11 04:33:02;;;;;;;16.40;11.52;;;;;;;8.86;100.00;102679.97;5015321;28;20050;-71
2022/11/11 04:35:28;;;;;;;16.48;11.60;;;;;;;8.87;100.00;102684.31;5014894;28;20478;-71
2022/11/11 04:41:02;;;;;;;19.10;12.38;;;;;;;8.87;100.00;102686.19;5028949;28;20105;-71
2022/11/11 04:43:23;;;;;;;16.00;12.27;;;;;;;8.79;100.00;102686.22;5034754;28;20103;-71
2022/11/11 04:45:48;;;;;;;20.35;12.18;;;;;;;8.79;100.00;102681.66;5034893;28;20442;-71
2022/11/11 04:48:15;;;;;;;20.25;12.45;;;;;;;8.79;100.00;102680.81;5033308;28;20064;-71
2022/11/11 04:50:43;;;;;;;16.27;12.15;;;;;;;8.81;100.00;102690.41;5032228;28;20488;-71
2022/11/11 04:53:10;;;;;;;16.42;11.25;;;;;;;8.81;100.00;102684.16;5034286;28;20025;-71
2022/11/11 04:58:23;;;;;;;18.85;11.85;;;;;;;8.75;100.00;102682.16;5014684;28;20060;-71
2022/11/11 05:00:48;;;;;;;16.98;11.35;;;;;;;8.73;100.00;102682.31;5012094;28;20129;-71
2022/11/11 05:03:14;;;;;;;17.75;11.60;;;;;;;8.71;100.00;102683.47;5014284;28;20032;-70
2022/11/11 05:11:10;;;;;;;16.67;10.73;;;;;;;8.62;100.00;102675.41;5014571;28;20041;-71
2022/11/11 05:22:06;;;;;;;17.70;11.40;;;;;;;8.58;100.00;102682.13;5014430;28;20433;-71
2022/11/11 05:27:15;;;;;;;18.00;11.13;;;;;;;8.55;100.00;102678.94;5014268;28;20484;-71
2022/11/11 05:29:40;;;;;;;15.93;11.68;;;;;;;8.56;100.00;102680.59;5014106;28;20026;-70
2022/11/11 05:32:07;;;;;;;14.95;10.80;;;;;;;8.54;100.00;102683.47;5012516;28;20081;-71
2022/11/11 05:34:32;;;;;;;14.10;9.95;;;;;;;8.51;100.00;102687.34;5013797;28;20412;-71
2022/11/11 05:36:57;;;;;;;15.73;10.65;;;;;;;8.54;100.00;102691.56;5013518;28;20108;-70
2022/11/11 05:39:22;;;;;;;15.88;10.93;;;;;;;8.59;100.00;102693.75;5013818;28;20139;-71
2022/11/11 05:41:48;;;;;;;16.42;10.30;;;;;;;8.56;100.00;102686.00;5014092;28;20026;-71
2022/11/11 05:44:13;;;;;;;14.23;10.10;;;;;;;8.53;100.00;102692.59;5013855;28;20033;-71
2022/11/11 05:46:38;;;;;;;13.15;10.80;;;;;;;8.51;100.00;102689.19;5013996;28;20041;-71
2022/11/11 05:49:16;;;;;;;14.80;11.07;;;;;;;8.43;100.00;102687.28;5013700;28;20030;-71
2022/11/11 05:51:45;;;;;;;14.80;11.25;;;;;;;8.38;100.00;102678.00;5013884;28;20160;-71
2022/11/11 05:54:12;;;;;;;18.25;11.30;;;;;;;8.37;100.00;102687.97;5013410;28;20100;-71
2022/11/11 05:56:37;;;;;;;16.25;11.45;;;;;;;8.28;100.00;102679.00;5022481;28;20014;-71
2022/11/11 05:59:04;;;;;;;14.15;11.57;;;;;;;8.28;100.00;102679.00;5032609;28;20029;-71
2022/11/11 06:01:30;;;;;;;16.42;11.82;;;;;;;8.24;100.00;102688.41;5030060;28;20036;-71
2022/11/11 06:03:55;;;;;;;15.73;11.43;;;;;;;8.24;100.00;102688.41;5033202;28;20223;-71
2022/11/11 06:06:20;;;;;;;19.60;12.07;;;;;;;8.21;100.00;102687.91;5031686;28;20132;-71
2022/11/11 06:08:46;;;;;;;16.60;11.60;;;;;;;8.20;100.00;102700.56;5033620;28;20033;-70
2022/11/11 06:11:11;;;;;;;15.45;11.43;;;;;;;8.20;100.00;102692.47;5031573;28;20014;-71
2022/11/11 06:13:36;;;;;;;14.85;11.77;;;;;;;8.15;100.00;102695.66;5033070;28;20056;-71
2022/11/11 06:16:03;;;;;;;15.50;11.85;;;;;;;8.11;100.00;102696.16;5031703;28;20017;-71
2022/11/11 06:18:28;;;;;;;14.20;10.60;;;;;;;8.12;100.00;102695.13;5031581;28;20499;-71
2022/11/11 06:20:58;;;;;;;16.13;11.73;;;;;;;8.09;100.00;102698.16;5033073;28;20029;-71
2022/11/11 06:23:24;;;;;;;16.48;11.52;;;;;;;7.97;100.00;102698.47;5031523;28;20052;-71
2022/11/11 06:28:35;;;;;;;12.90;11.55;;;;;;;7.92;100.00;102708.03;5032923;28;20032;-71
2022/11/11 06:31:00;;;;;;;19.38;12.55;;;;;;;7.93;100.00;102710.56;5032632;28;20017;-70
2022/11/11 06:33:26;;;;;;;19.42;12.30;;;;;;;7.93;100.00;102715.13;5031580;28;20079;-70
2022/11/11 06:35:51;;;;;;;14.75;11.70;;;;;;;7.97;100.00;102722.72;5031620;28;20397;-71
2022/11/11 06:38:17;;;;;;;16.50;11.93;;;;;;;7.92;100.00;102722.34;5032319;28;20057;-70
2022/11/11 06:40:43;;;;;;;17.13;11.93;;;;;;;7.87;100.00;102719.31;5031455;28;20029;-71
2022/11/11 06:43:09;;;;;;;16.98;12.18;;;;;;;7.88;100.00;102720.13;5032515;28;20415;-70
2022/11/11 06:45:35;;;;;;;19.20;12.38;;;;;;;7.84;100.00;102725.00;5032596;28;20025;-70
2022/11/11 06:48:03;;;;;;;16.85;12.02;;;;;;;7.83;100.00;102725.19;5030442;28;20064;-71
2022/11/11 06:50:30;;;;;;;16.55;11.98;;;;;;;7.76;100.00;102728.50;5031213;28;20528;-71
2022/11/11 06:52:56;;;;;;;17.38;12.20;;;;;;;7.76;100.00;102727.66;5032336;28;20376;-70
2022/11/11 06:55:21;;;;;;;18.13;12.73;;;;;;;7.75;100.00;102734.06;5032453;28;20029;-70
2022/11/11 06:57:47;;;;;;;19.75;12.40;;;;;;;7.73;100.00;102727.97;5032629;28;20065;-71
2022/11/11 07:00:13;;;;;;;18.25;12.90;;;;;;;7.71;100.00;102730.81;5032304;28;20021;-71
2022/11/11 07:02:38;;;;;;;17.17;11.95;;;;;;;7.73;100.00;102727.97;5029768;28;20021;-70
2022/11/11 07:05:04;;;;;;;14.63;11.15;;;;;;;7.72;100.00;102726.31;5032367;28;20029;-71
2022/11/11 07:07:30;;;;;;;15.73;11.23;;;;;;;7.73;100.00;102736.06;5032022;28;20381;-71
2022/11/11 07:09:55;;;;;;;15.38;11.30;;;;;;;7.70;100.00;102721.06;5031147;28;20097;-71
2022/11/11 07:12:23;;;;;;;19.75;11.30;;;;;;;7.73;100.00;102733.34;5032026;28;20036;-71
2022/11/11 07:14:52;;;;;;;16.83;10.85;;;;;;;7.72;100.00;102726.31;5034831;28;20028;-71
2022/11/11 07:17:17;;;;;;;15.85;10.95;;;;;;;7.72;100.00;102727.13;5034967;28;20029;-70
2022/11/11 07:19:43;;;;;;;15.27;9.95;;;;;;;7.73;100.00;102738.75;5036153;28;20021;-71
2022/11/11 07:22:08;;;;;;;15.93;10.15;;;;;;;7.76;100.00;102739.28;5036197;28;20364;-71
2022/11/11 07:24:33;;;;;;;15.05;10.23;;;;;;;7.74;100.00;102745.84;5035966;28;20025;-71
2022/11/11 07:27:00;;;;;;;15.10;9.98;;;;;;;7.76;100.00;102751.91;5035120;28;20028;-71
2022/11/11 07:29:28;;;;;;;19.08;9.75;;;;;;;7.74;100.00;102753.91;5036111;28;20125;-72
2022/11/11 07:31:53;;;;;;;15.07;10.20;;;;;;;7.76;100.00;102754.59;5034571;28;20496;-72
2022/11/11 07:34:18;;;;;;;17.50;10.57;;;;;;;7.77;100.00;102753.59;5036154;28;20017;-71
2022/11/11 07:36:43;;;;;;;15.55;10.98;;;;;;;7.75;100.00;102752.94;5035895;28;20024;-71
2022/11/11 07:39:09;;;;;;;15.77;10.82;;;;;;;7.78;100.00;102752.59;5035817;28;20057;-71
2022/11/11 07:41:34;;;;;;;16.95;11.00;;;;;;;7.77;100.00;102769.78;5034484;28;20021;-70
2022/11/11 07:44:01;;;;;;;16.50;11.15;;;;;;;7.76;100.00;102771.63;5035803;28;20413;-71
2022/11/11 07:46:26;;;;;;;16.15;10.60;;;;;;;7.77;100.00;102764.38;5035601;28;20025;-71
2022/11/11 07:48:51;;;;;;;16.40;10.85;;;;;;;7.81;100.00;102758.50;5035813;28;20029;-71
2022/11/11 07:51:17;;;;;;;19.25;11.27;;;;;;;7.81;100.00;102768.47;5035411;28;20026;-71
2022/11/11 07:53:42;;;;;;;15.13;11.23;;;;;;;7.81;100.00;102771.16;5034455;28;20044;-71
2022/11/11 07:56:07;;;;;;;14.25;11.05;;;;;;;7.84;100.00;102778.91;5035807;28;20025;-70
2022/11/11 07:58:32;;;;;;;18.05;10.93;;;;;;;7.84;100.00;102781.63;5035367;28;20025;-77
2022/11/11 08:00:59;;;;;;;16.85;11.60;;;;;;;7.87;100.00;102793.94;5032311;28;20453;-73
2022/11/11 08:03:24;;;;;;;14.77;11.15;;;;;;;7.85;100.00;102791.41;5034206;28;20025;-74
2022/11/11 08:05:50;;;;;;;17.10;11.85;;;;;;;7.89;100.00;102795.44;5034398;28;20028;-71
2022/11/11 08:08:15;;;;;;;14.25;11.15;;;;;;;7.89;100.00;102803.53;5033947;28;20033;-72
2022/11/11 08:10:40;;;;;;;14.88;11.05;;;;;;;7.89;100.00;102808.09;5035291;28;20025;-70
2022/11/11 08:15:54;;;;;;;18.63;12.77;;;;;;;7.96;100.00;102810.00;5020079;28;20056;-69
2022/11/11 08:18:19;;;;;;;15.05;10.90;;;;;;;7.99;100.00;102808.84;5015301;28;20446;-70
2022/11/11 08:20:45;;;;;;;14.13;11.13;;;;;;;8.03;100.00;102809.34;5015692;28;20049;-70
2022/11/11 08:23:13;;;;;;;15.30;11.43;;;;;;;8.05;100.00;102818.97;5015569;28;20030;-74
2022/11/11 08:25:39;;;;;;;15.27;10.88;;;;;;;8.05;100.00;102815.44;5014946;28;20030;-69
2022/11/11 08:28:04;;;;;;;15.70;11.05;;;;;;;8.04;100.00;102813.75;5015498;28;20408;-70
2022/11/11 08:30:31;;;;;;;16.15;11.23;;;;;;;8.01;100.00;102816.75;5015182;28;20030;-72
2022/11/11 08:33:01;;;;;;;15.35;10.73;;;;;;;8.05;100.00;102824.38;5015991;28;20050;-76
2022/11/11 08:35:28;;;;;;;14.68;10.95;;;;;;;8.06;100.00;102825.22;5015220;28;20026;-71
2022/11/11 08:37:54;;;;;;;14.23;10.75;;;;;;;8.02;100.00;102840.88;5016041;28;20030;-73
2022/11/11 08:40:20;;;;;;;13.25;10.60;;;;;;;8.08;100.00;102839.41;5035050;28;20032;-71
2022/11/11 08:42:45;;;;;;;14.48;10.52;;;;;;;8.09;100.00;102838.38;5035062;28;20100;-74
2022/11/11 08:45:11;;;;;;;18.20;10.43;;;;;;;8.14;100.00;102838.75;5034933;28;20160;-72
2022/11/11 08:47:37;;;;;;;14.10;10.13;;;;;;;8.14;100.00;102838.75;5034730;28;20467;-72
2022/11/11 08:50:04;;;;;;;12.80;9.13;;;;;;;8.21;100.00;102852.44;5035122;28;20029;-72
2022/11/11 08:52:30;;;;;;;12.40;9.32;;;;;;;8.20;100.00;102845.34;5031239;28;20029;-72
2022/11/11 08:54:55;;;;;;;12.77;9.88;;;;;;;8.22;100.00;102849.56;5019853;28;20030;-71
2022/11/11 08:57:20;;;;;;;11.63;9.35;;;;;;;8.23;100.00;102848.56;5013340;28;20059;-73
2022/11/11 08:59:46;;;;;;;13.32;9.45;;;;;;;8.29;100.00;102853.31;5029374;28;20033;-71
2022/11/11 09:02:12;;;;;;;15.75;9.57;;;;;;;8.31;100.00;102848.59;5018217;28;20030;-76
2022/11/11 09:04:39;;;;;;;11.73;8.98;;;;;;;8.31;100.00;102853.16;5028402;28;20036;-71
2022/11/11 09:07:06;;;;;;;11.35;8.90;;;;;;;8.32;100.00;102838.69;5025082;28;20085;-75
2022/11/11 09:09:31;;;;;;;10.75;8.25;;;;;;;8.34;100.00;102842.06;5014247;28;20484;-72
2022/11/11 09:11:57;;;;;;;12.02;8.93;;;;;;;8.36;100.00;102844.59;5014652;28;20026;-71
2022/11/11 09:14:22;;;;;;;13.02;9.18;;;;;;;8.38;100.00;102843.44;5013091;28;20488;-76
2022/11/11 09:16:47;;;;;;;14.45;9.00;;;;;;;8.42;100.00;102849.34;5021336;28;20139;-70
2022/11/11 09:19:13;;;;;;;12.77;8.90;;;;;;;8.45;100.00;102849.03;5033299;28;20021;-70
2022/11/11 09:21:38;;;;;;;11.18;8.38;;;;;;;8.46;100.00;102848.03;5034045;28;20032;-77
2022/11/11 09:24:04;;;;;;;10.73;8.30;;;;;;;8.49;100.00;102848.56;5032983;28;20021;-71
2022/11/11 09:26:29;;;;;;;13.60;9.15;;;;;;;8.52;100.00;102855.50;5029463;28;20033;-70
2022/11/11 09:28:54;;;;;;;11.57;8.43;;;;;;;8.57;100.00;102853.13;5015852;28;20026;-72
2022/11/11 09:31:19;;;;;;;12.88;8.65;;;;;;;8.60;100.00;102858.22;5015084;28;20091;-69
2022/11/11 09:33:45;;;;;;;9.43;8.00;;;;;;;8.65;100.00;102861.28;5022264;28;20024;-71
2022/11/11 09:36:10;;;;;;;12.65;8.18;;;;;;;8.72;100.00;102856.06;5033323;28;20104;-70
2022/11/11 09:38:35;;;;;;;11.38;7.97;;;;;;;8.71;100.00;102856.22;5028575;28;20037;-71
2022/11/11 09:41:07;;;;;;;12.10;8.43;;;;;;;8.76;100.00;102859.31;5014287;28;20028;-71
2022/11/11 09:43:45;;;;;;;10.70;8.20;;;;;;;8.80;100.00;102860.66;5017966;28;20158;-71
2022/11/11 09:46:35;;;;;;;10.10;8.00;;;;;;;8.81;100.00;102865.03;5013585;28;20028;-72
2022/11/11 09:49:19;;;;;;;10.25;8.27;;;;;;;8.82;100.00;102861.34;5013832;28;20037;-72
2022/11/11 09:51:50;;;;;;;10.60;8.38;;;;;;;8.84;100.00;102862.84;5013477;28;20091;-72
2022/11/11 09:54:43;;;;;;;12.23;8.52;;;;;;;8.89;100.00;102873.16;5013930;28;20036;-72
2022/11/11 09:57:21;;;;;;;9.88;7.75;;;;;;;8.94;100.00;102865.44;5013174;28;20038;-72
2022/11/11 09:59:51;;;;;;;9.00;7.78;;;;;;;8.98;100.00;102857.84;5014157;28;20029;-72
2022/11/11 10:02:35;;;;;;;10.15;7.68;;;;;;;9.06;100.00;102871.38;5026382;28;20026;-72
2022/11/11 10:05:14;;;;;;;8.93;7.43;;;;;;;9.15;100.00;102867.66;5013762;28;20608;-72
2022/11/11 10:08:12;;;;;;;10.43;7.55;;;;;;;9.15;100.00;102864.09;5021815;28;20477;-72
2022/11/11 10:10:37;;;;;;;11.43;8.23;;;;;;;9.14;100.00;102859.72;5011759;28;20052;-72
2022/11/11 10:13:14;;;;;;;8.98;7.57;;;;;;;9.16;100.00;102872.06;5016926;28;20021;-72
2022/11/11 10:16:08;;;;;;;12.15;7.60;;;;;;;9.23;100.00;102877.63;5033065;28;20338;-72
2022/11/11 10:18:52;;;;;;;10.75;7.95;;;;;;;9.30;100.00;102867.00;5033231;28;20456;-70
2022/11/11 10:21:41;;;;;;;9.80;7.78;;;;;;;9.32;100.00;102876.63;5033082;28;20021;-73
2022/11/11 10:24:14;;;;;;;11.45;7.75;;;;;;;9.40;100.00;102871.25;5032676;28;20373;-71
2022/11/11 10:26:43;;;;;;;10.48;7.78;;;;;;;9.44;100.00;102874.47;5031035;28;20017;-72
2022/11/11 10:29:16;;;;;;;11.00;7.80;;;;;;;9.47;100.00;102876.00;5032882;28;20406;-72
2022/11/11 10:31:42;;;;;;;10.38;7.50;;;;;;;9.49;100.00;102874.78;5019431;28;20061;-74
2022/11/11 10:34:14;;;;;;;8.85;7.18;;;;;;;9.54;100.00;102868.88;5013041;28;20025;-75
2022/11/11 10:36:48;;;;;;;10.25;7.38;;;;;;;9.61;100.00;102875.31;5012691;28;20022;-70
2022/11/11 10:39:22;;;;;;;9.30;6.55;;;;;;;9.66;100.00;102878.38;5019383;28;20013;-71
2022/11/11 10:41:50;;;;;;;8.68;6.70;;;;;;;9.71;100.00;102876.00;5029981;28;20037;-70
2022/11/11 10:44:30;;;;;;;9.13;6.90;;;;;;;9.75;100.00;102869.22;5021952;28;20421;-71
2022/11/11 10:47:33;;;;;;;7.05;6.25;;;;;;;9.85;100.00;102879.88;5012911;28;20025;-74
2022/11/11 10:50:11;;;;;;;8.77;5.90;;;;;;;9.94;100.00;102875.28;5013563;28;20052;-72
2022/11/11 10:52:44;;;;;;;11.05;6.20;;;;;;;10.00;100.00;102874.59;5013484;28;20025;-71
2022/11/11 10:55:19;;;;;;;8.55;5.80;;;;;;;10.09;100.00;102875.44;5012886;28;20069;-72
2022/11/11 10:57:54;;;;;;;8.18;5.97;;;;;;;10.14;100.00;102875.75;5016410;28;20033;-71
2022/11/11 11:00:19;;;;;;;9.75;5.40;;;;;;;10.21;100.00;102876.75;5031935;28;20025;-73
2022/11/11 11:02:58;;;;;;;10.70;5.53;;;;;;;10.29;100.00;102875.91;5024124;28;20347;-71
2022/11/11 11:05:31;;;;;;;7.25;5.13;;;;;;;10.36;100.00;102879.63;5013786;28;20025;-73
2022/11/11 11:08:01;;;;;;;9.35;5.60;;;;;;;10.42;100.00;102862.69;5017791;28;20044;-71
2022/11/11 11:10:40;;;;;;;5.30;4.80;;;;;;;10.50;100.00;102875.34;5029651;28;20088;-72
2022/11/11 11:13:20;;;;;;;7.97;4.70;;;;;;;10.55;100.00;102869.41;5032562;28;20052;-76
2022/11/11 11:15:53;;;;;;;6.72;4.70;;;;;;;10.63;100.00;102861.28;5032310;28;20022;-70
2022/11/11 11:18:19;;;;;;;4.60;4.15;;;;;;;10.67;100.00;102867.16;5019197;28;20030;-70
2022/11/11 11:20:56;;;;;;;5.45;3.95;;;;;;;10.73;100.00;102867.28;5031788;28;20457;-71
2022/11/11 11:23:39;;;;;;;5.70;3.70;;;;;;;10.79;100.00;102863.91;5021527;28;20116;-70
2022/11/11 11:26:05;;;;;;;5.45;3.60;;;;;;;10.82;100.00;102863.56;5027736;28;20041;-71
2022/11/11 11:28:33;;;;;;;4.88;3.70;;;;;;;10.86;100.00;102860.50;5030767;28;20049;-71
2022/11/11 11:31:06;;;;;;;4.32;3.20;;;;;;;10.87;100.00;102862.16;5027458;28;20104;-70
2022/11/11 11:33:51;;;;;;;6.28;3.40;;;;;;;10.93;100.00;102864.16;5030791;28;20032;-70
2022/11/11 11:36:17;;;;;;;6.25;3.22;;;;;;;10.96;100.00;102859.25;5032340;28;20061;-72
2022/11/11 11:38:49;;;;;;;6.32;3.35;;;;;;;10.99;100.00;102860.72;5020962;28;20069;-71
2022/11/11 11:41:15;;;;;;;5.60;3.38;;;;;;;11.01;100.00;102861.41;5021395;28;20049;-71
2022/11/11 11:43:41;;;;;;;4.55;2.78;;;;;;;11.01;100.00;102860.56;5014282;28;20461;-71
2022/11/11 11:46:36;;;;;;;5.45;3.08;;;;;;;11.05;100.00;102861.88;5030324;28;20029;-71
2022/11/11 11:49:22;;;;;;;5.10;2.60;;;;;;;11.08;100.00;102862.38;5016601;28;20117;-71
2022/11/11 11:52:24;;;;;;;3.50;2.50;;;;;;;11.12;100.00;102858.28;5012162;28;20049;-74
2022/11/11 11:55:09;;;;;;;;;;;;;;;11.21;100.00;102850.09;4998651;28;20042;-71
2022/11/11 11:57:52;;;;;;;4.03;2.30;;;;;;;11.23;100.00;102853.47;5010803;28;19905;-72
2022/11/11 12:00:22;;;;;;;6.20;2.25;;;;;;;11.29;100.00;102850.03;5012154;28;20046;-71
2022/11/11 12:03:29;;;;;;;4.28;2.30;;;;;;;11.31;100.00;102848.84;5014265;28;20018;-70
2022/11/11 12:06:11;;;;;;;4.93;2.10;;;;;;;11.37;100.00;102854.56;4969924;28;20031;-72
2022/11/11 12:08:51;;;;;;;4.95;2.10;;;;;;;11.41;99.75;102845.88;5011610;28;20042;-71
2022/11/11 12:11:38;;;;;;;3.97;2.15;;;;;;;11.44;97.62;102850.94;5027319;28;20039;-71
2022/11/11 12:14:25;;;;;;;2.65;1.90;;;;;;;11.42;93.16;102847.56;5035544;28;20048;-71
2022/11/11 12:17:22;;;;;;;3.35;2.20;;;;;;;11.45;92.83;102843.66;5035114;28;20021;-71
2022/11/11 12:20:16;;;;;;;3.17;1.70;;;;;;;11.50;95.82;102839.38;5034203;28;20095;-71
2022/11/11 12:22:59;;;;;;;2.90;1.98;;;;;;;11.53;94.71;102830.88;5017526;28;20121;-74
2022/11/11 12:25:39;;;;;;;4.05;1.98;;;;;;;11.58;93.44;102834.91;5016796;28;20104;-72
2022/11/11 12:28:26;;;;;;;2.50;1.63;;;;;;;11.62;96.89;102836.22;5034635;28;20021;-71
2022/11/11 12:31:17;;;;;;;4.10;1.80;;;;;;;11.67;95.53;102823.81;5031559;28;20033;-71
2022/11/11 12:34:07;;;;;;;2.75;2.10;;;;;;;11.68;94.52;102819.22;5013478;28;20045;-71
2022/11/11 12:36:43;;;;;;;5.63;1.80;;;;;;;11.70;89.60;102828.03;5026116;28;20026;-71
2022/11/11 12:39:47;;;;;;;2.47;1.90;;;;;;;11.72;92.66;102820.53;5014948;28;20025;-70